sensor_id;sensor_type;location;lat;lon;timestamp;P1;durP1;ratioP1;P2;durP2;ratioP2
47349;SDS011;33088;51.982;5.872;2022-08-27T09:01:58;4.72;;;1.30;;
47349;SDS011;33088;51.982;5.872;2022-08-27T09:04:27;2.60;;;1.15;;
47349;SDS011;33088;51.982;5.872;2022-08-27T09:09:26;2.53;;;1.40;;
47349;SDS011;33088;51.982;5.872;2022-08-27T09:12:15;3.55;;;1.40;;
47349;SDS011;33088;51.982;5.872;2022-08-27T09:17:20;4.65;;;1.40;;
47349;SDS011;33088;51.982;5.872;2022-08-27T09:19:46;4.00;;;1.75;;
47349;SDS011;33088;51.982;5.872;2022-08-27T09:27:19;5.43;;;2.28;;
47349;SDS011;33088;51.982;5.872;2022-08-27T09:29:56;4.15;;;1.45;;
47349;SDS011;33088;51.982;5.872;2022-08-27T09:32:26;2.72;;;1.40;;
47349;SDS011;33088;51.982;5.872;2022-08-27T09:34:56;4.22;;;1.77;;
47349;SDS011;33088;51.982;5.872;2022-08-27T09:37:31;5.43;;;1.23;;
47349;SDS011;33088;51.982;5.872;2022-08-27T09:40:11;2.95;;;1.60;;
47349;SDS011;33088;51.982;5.872;2022-08-27T09:42:52;3.47;;;1.50;;
47349;SDS011;33088;51.982;5.872;2022-08-27T09:48:00;3.67;;;1.40;;
47349;SDS011;33088;51.982;5.872;2022-08-27T09:50:56;3.65;;;1.33;;
47349;SDS011;33088;51.982;5.872;2022-08-27T09:56:23;2.67;;;1.52;;
47349;SDS011;33088;51.982;5.872;2022-08-27T10:01:31;1.83;;;1.30;;
47349;SDS011;33088;51.982;5.872;2022-08-27T10:06:30;15.55;;;4.30;;
47349;SDS011;33088;51.982;5.872;2022-08-27T10:09:08;5.65;;;1.60;;
47349;SDS011;33088;51.982;5.872;2022-08-27T10:11:36;3.85;;;1.40;;
47349;SDS011;33088;51.982;5.872;2022-08-27T10:30:11;3.30;;;1.65;;
47349;SDS011;33088;51.982;5.872;2022-08-27T10:35:36;3.75;;;1.60;;
47349;SDS011;33088;51.982;5.872;2022-08-27T10:40:42;5.68;;;1.45;;
47349;SDS011;33088;51.982;5.872;2022-08-27T10:49:10;2.65;;;1.42;;
47349;SDS011;33088;51.982;5.872;2022-08-27T10:52:04;3.30;;;1.40;;
47349;SDS011;33088;51.982;5.872;2022-08-27T10:54:46;3.50;;;1.60;;
47349;SDS011;33088;51.982;5.872;2022-08-27T11:00:26;3.47;;;1.48;;
47349;SDS011;33088;51.982;5.872;2022-08-27T11:05:44;3.97;;;1.50;;
47349;SDS011;33088;51.982;5.872;2022-08-27T11:08:15;5.60;;;1.50;;
47349;SDS011;33088;51.982;5.872;2022-08-27T11:10:48;3.67;;;1.60;;
47349;SDS011;33088;51.982;5.872;2022-08-27T11:13:23;4.78;;;2.05;;
47349;SDS011;33088;51.982;5.872;2022-08-27T11:15:58;7.10;;;1.50;;
47349;SDS011;33088;51.982;5.872;2022-08-27T11:26:56;2.45;;;1.30;;
47349;SDS011;33088;51.982;5.872;2022-08-27T11:29:29;3.42;;;1.48;;
47349;SDS011;33088;51.982;5.872;2022-08-27T11:35:05;3.25;;;1.40;;
47349;SDS011;33088;51.982;5.872;2022-08-27T11:38:04;4.53;;;1.08;;
47349;SDS011;33088;51.982;5.872;2022-08-27T11:43:23;4.47;;;1.92;;
47349;SDS011;33088;51.982;5.872;2022-08-27T11:45:59;6.78;;;1.77;;
47349;SDS011;33088;51.982;5.872;2022-08-27T11:51:05;5.10;;;1.88;;
47349;SDS011;33088;51.982;5.872;2022-08-27T11:53:35;5.07;;;1.70;;
47349;SDS011;33088;51.982;5.872;2022-08-27T11:56:31;4.40;;;2.15;;
47349;SDS011;33088;51.982;5.872;2022-08-27T12:01:34;4.65;;;1.30;;
47349;SDS011;33088;51.982;5.872;2022-08-27T12:04:01;3.63;;;1.90;;
47349;SDS011;33088;51.982;5.872;2022-08-27T12:06:39;5.63;;;1.90;;
47349;SDS011;33088;51.982;5.872;2022-08-27T12:09:17;2.85;;;1.92;;
47349;SDS011;33088;51.982;5.872;2022-08-27T12:11:52;6.82;;;1.90;;
47349;SDS011;33088;51.982;5.872;2022-08-27T12:24:26;7.45;;;2.00;;
47349;SDS011;33088;51.982;5.872;2022-08-27T12:27:16;3.83;;;2.05;;
47349;SDS011;33088;51.982;5.872;2022-08-27T12:30:04;6.38;;;1.60;;
47349;SDS011;33088;51.982;5.872;2022-08-27T12:32:50;4.40;;;1.65;;
47349;SDS011;33088;51.982;5.872;2022-08-27T12:35:35;5.20;;;1.95;;
47349;SDS011;33088;51.982;5.872;2022-08-27T12:38:15;5.07;;;1.63;;
47349;SDS011;33088;51.982;5.872;2022-08-27T12:40:47;5.32;;;2.17;;
47349;SDS011;33088;51.982;5.872;2022-08-27T12:43:21;4.45;;;1.48;;
47349;SDS011;33088;51.982;5.872;2022-08-27T12:45:51;6.78;;;1.55;;
47349;SDS011;33088;51.982;5.872;2022-08-27T12:48:20;3.60;;;1.50;;
47349;SDS011;33088;51.982;5.872;2022-08-27T12:50:53;5.15;;;1.90;;
47349;SDS011;33088;51.982;5.872;2022-08-27T12:53:43;3.75;;;1.50;;
47349;SDS011;33088;51.982;5.872;2022-08-27T12:56:23;3.55;;;1.60;;
47349;SDS011;33088;51.982;5.872;2022-08-27T12:59:06;4.38;;;2.00;;
47349;SDS011;33088;51.982;5.872;2022-08-27T13:01:48;3.83;;;1.45;;
47349;SDS011;33088;51.982;5.872;2022-08-27T13:07:03;5.88;;;2.00;;
47349;SDS011;33088;51.982;5.872;2022-08-27T13:09:30;5.82;;;1.80;;
47349;SDS011;33088;51.982;5.872;2022-08-27T13:11:57;3.20;;;1.45;;
47349;SDS011;33088;51.982;5.872;2022-08-27T13:14:25;6.35;;;1.77;;
47349;SDS011;33088;51.982;5.872;2022-08-27T13:19:26;2.90;;;1.33;;
47349;SDS011;33088;51.982;5.872;2022-08-27T13:21:54;4.75;;;1.80;;
47349;SDS011;33088;51.982;5.872;2022-08-27T13:24:26;4.07;;;2.20;;
47349;SDS011;33088;51.982;5.872;2022-08-27T13:26:55;7.22;;;2.22;;
47349;SDS011;33088;51.982;5.872;2022-08-27T13:29:21;5.78;;;1.75;;
47349;SDS011;33088;51.982;5.872;2022-08-27T13:31:48;5.28;;;2.00;;
47349;SDS011;33088;51.982;5.872;2022-08-27T13:34:19;5.40;;;1.65;;
47349;SDS011;33088;51.982;5.872;2022-08-27T13:39:20;9.88;;;2.30;;
47349;SDS011;33088;51.982;5.872;2022-08-27T13:41:47;8.15;;;1.60;;
47349;SDS011;33088;51.982;5.872;2022-08-27T13:44:23;4.40;;;1.77;;
47349;SDS011;33088;51.982;5.872;2022-08-27T13:46:52;7.15;;;1.83;;
47349;SDS011;33088;51.982;5.872;2022-08-27T13:49:39;1.90;;;1.30;;
47349;SDS011;33088;51.982;5.872;2022-08-27T13:54:46;5.32;;;1.58;;
47349;SDS011;33088;51.982;5.872;2022-08-27T13:57:48;4.03;;;1.63;;
47349;SDS011;33088;51.982;5.872;2022-08-27T14:00:09;6.93;;;1.55;;
47349;SDS011;33088;51.982;5.872;2022-08-27T14:02:50;5.60;;;1.92;;
47349;SDS011;33088;51.982;5.872;2022-08-27T14:07:49;3.85;;;2.00;;
47349;SDS011;33088;51.982;5.872;2022-08-27T14:12:43;7.30;;;2.50;;
47349;SDS011;33088;51.982;5.872;2022-08-27T14:15:18;4.43;;;1.50;;
47349;SDS011;33088;51.982;5.872;2022-08-27T14:18:05;5.22;;;1.63;;
47349;SDS011;33088;51.982;5.872;2022-08-27T14:20:44;5.88;;;1.60;;
47349;SDS011;33088;51.982;5.872;2022-08-27T14:23:09;4.40;;;1.50;;
47349;SDS011;33088;51.982;5.872;2022-08-27T14:25:35;3.88;;;1.50;;
47349;SDS011;33088;51.982;5.872;2022-08-27T14:28:01;3.83;;;1.20;;
47349;SDS011;33088;51.982;5.872;2022-08-27T14:30:27;4.85;;;1.48;;
47349;SDS011;33088;51.982;5.872;2022-08-27T14:32:53;3.95;;;1.45;;
47349;SDS011;33088;51.982;5.872;2022-08-27T14:35:18;5.82;;;1.73;;
47349;SDS011;33088;51.982;5.872;2022-08-27T14:37:44;4.63;;;1.27;;
47349;SDS011;33088;51.982;5.872;2022-08-27T14:40:11;2.78;;;1.50;;
47349;SDS011;33088;51.982;5.872;2022-08-27T14:42:38;5.05;;;1.58;;
47349;SDS011;33088;51.982;5.872;2022-08-27T14:45:04;6.10;;;2.05;;
47349;SDS011;33088;51.982;5.872;2022-08-27T14:47:31;1.92;;;1.20;;
47349;SDS011;33088;51.982;5.872;2022-08-27T14:49:57;7.25;;;1.60;;
47349;SDS011;33088;51.982;5.872;2022-08-27T14:52:23;2.13;;;1.40;;
47349;SDS011;33088;51.982;5.872;2022-08-27T14:54:49;6.65;;;1.52;;
47349;SDS011;33088;51.982;5.872;2022-08-27T14:57:14;4.43;;;1.90;;
47349;SDS011;33088;51.982;5.872;2022-08-27T14:59:40;4.47;;;1.17;;
47349;SDS011;33088;51.982;5.872;2022-08-27T15:02:07;3.72;;;1.27;;
47349;SDS011;33088;51.982;5.872;2022-08-27T15:04:37;5.93;;;1.60;;
47349;SDS011;33088;51.982;5.872;2022-08-27T15:07:03;3.47;;;1.25;;
47349;SDS011;33088;51.982;5.872;2022-08-27T15:09:31;3.50;;;1.08;;
47349;SDS011;33088;51.982;5.872;2022-08-27T15:11:56;6.85;;;1.90;;
47349;SDS011;33088;51.982;5.872;2022-08-27T15:14:24;6.75;;;1.58;;
47349;SDS011;33088;51.982;5.872;2022-08-27T15:16:51;6.97;;;2.00;;
47349;SDS011;33088;51.982;5.872;2022-08-27T15:19:18;3.75;;;1.70;;
47349;SDS011;33088;51.982;5.872;2022-08-27T15:21:46;3.33;;;1.40;;
47349;SDS011;33088;51.982;5.872;2022-08-27T15:26:50;6.32;;;1.83;;
47349;SDS011;33088;51.982;5.872;2022-08-27T15:29:17;4.93;;;1.77;;
47349;SDS011;33088;51.982;5.872;2022-08-27T15:31:43;4.55;;;1.50;;
47349;SDS011;33088;51.982;5.872;2022-08-27T15:34:09;5.55;;;1.60;;
47349;SDS011;33088;51.982;5.872;2022-08-27T15:36:35;6.28;;;1.90;;
47349;SDS011;33088;51.982;5.872;2022-08-27T15:39:01;2.95;;;1.27;;
47349;SDS011;33088;51.982;5.872;2022-08-27T15:41:28;4.47;;;1.80;;
47349;SDS011;33088;51.982;5.872;2022-08-27T15:43:54;3.60;;;1.52;;
47349;SDS011;33088;51.982;5.872;2022-08-27T15:46:19;3.63;;;1.52;;
47349;SDS011;33088;51.982;5.872;2022-08-27T15:48:46;3.13;;;1.20;;
47349;SDS011;33088;51.982;5.872;2022-08-27T15:51:12;5.72;;;1.55;;
47349;SDS011;33088;51.982;5.872;2022-08-27T15:53:41;5.90;;;1.33;;
47349;SDS011;33088;51.982;5.872;2022-08-27T15:56:07;6.55;;;1.67;;
47349;SDS011;33088;51.982;5.872;2022-08-27T15:58:34;4.80;;;1.70;;
47349;SDS011;33088;51.982;5.872;2022-08-27T16:01:02;4.90;;;2.05;;
47349;SDS011;33088;51.982;5.872;2022-08-27T16:03:32;2.67;;;1.20;;
47349;SDS011;33088;51.982;5.872;2022-08-27T16:05:59;3.42;;;1.25;;
47349;SDS011;33088;51.982;5.872;2022-08-27T16:08:34;3.55;;;1.48;;
47349;SDS011;33088;51.982;5.872;2022-08-27T16:11:00;2.80;;;1.50;;
47349;SDS011;33088;51.982;5.872;2022-08-27T16:13:26;3.83;;;1.30;;
47349;SDS011;33088;51.982;5.872;2022-08-27T16:15:52;5.88;;;1.70;;
47349;SDS011;33088;51.982;5.872;2022-08-27T16:18:21;6.38;;;1.63;;
47349;SDS011;33088;51.982;5.872;2022-08-27T16:20:51;6.27;;;1.60;;
47349;SDS011;33088;51.982;5.872;2022-08-27T16:23:17;9.05;;;1.38;;
47349;SDS011;33088;51.982;5.872;2022-08-27T16:25:44;5.60;;;1.77;;
47349;SDS011;33088;51.982;5.872;2022-08-27T16:28:10;3.28;;;1.38;;
47349;SDS011;33088;51.982;5.872;2022-08-27T16:30:37;8.75;;;1.90;;
47349;SDS011;33088;51.982;5.872;2022-08-27T16:33:03;8.30;;;2.55;;
47349;SDS011;33088;51.982;5.872;2022-08-27T16:35:29;5.30;;;1.83;;
47349;SDS011;33088;51.982;5.872;2022-08-27T16:37:56;5.93;;;1.42;;
47349;SDS011;33088;51.982;5.872;2022-08-27T16:40:22;6.50;;;1.85;;
47349;SDS011;33088;51.982;5.872;2022-08-27T16:42:48;6.85;;;1.50;;
47349;SDS011;33088;51.982;5.872;2022-08-27T16:45:16;3.90;;;1.52;;
47349;SDS011;33088;51.982;5.872;2022-08-27T16:47:43;6.05;;;2.00;;
47349;SDS011;33088;51.982;5.872;2022-08-27T16:50:28;8.35;;;1.63;;
47349;SDS011;33088;51.982;5.872;2022-08-27T16:53:03;5.05;;;1.13;;
47349;SDS011;33088;51.982;5.872;2022-08-27T16:55:31;7.50;;;1.35;;
47349;SDS011;33088;51.982;5.872;2022-08-27T16:57:58;3.60;;;1.27;;
47349;SDS011;33088;51.982;5.872;2022-08-27T17:00:24;6.28;;;1.55;;
47349;SDS011;33088;51.982;5.872;2022-08-27T17:02:50;7.30;;;1.55;;
47349;SDS011;33088;51.982;5.872;2022-08-27T17:05:16;2.92;;;1.13;;
47349;SDS011;33088;51.982;5.872;2022-08-27T17:07:42;4.30;;;1.65;;
47349;SDS011;33088;51.982;5.872;2022-08-27T17:10:07;4.20;;;1.60;;
47349;SDS011;33088;51.982;5.872;2022-08-27T17:12:33;2.05;;;1.52;;
47349;SDS011;33088;51.982;5.872;2022-08-27T17:14:59;5.32;;;1.27;;
47349;SDS011;33088;51.982;5.872;2022-08-27T17:17:25;4.35;;;1.50;;
47349;SDS011;33088;51.982;5.872;2022-08-27T17:19:53;1.73;;;1.08;;
47349;SDS011;33088;51.982;5.872;2022-08-27T17:22:19;7.32;;;1.50;;
47349;SDS011;33088;51.982;5.872;2022-08-27T17:24:45;8.10;;;1.90;;
47349;SDS011;33088;51.982;5.872;2022-08-27T17:27:11;4.75;;;1.30;;
47349;SDS011;33088;51.982;5.872;2022-08-27T17:29:36;5.50;;;1.42;;
47349;SDS011;33088;51.982;5.872;2022-08-27T17:32:03;4.18;;;1.42;;
47349;SDS011;33088;51.982;5.872;2022-08-27T17:34:31;2.78;;;1.20;;
47349;SDS011;33088;51.982;5.872;2022-08-27T17:36:57;4.60;;;1.67;;
47349;SDS011;33088;51.982;5.872;2022-08-27T17:39:23;3.38;;;1.20;;
47349;SDS011;33088;51.982;5.872;2022-08-27T17:41:50;6.43;;;1.80;;
47349;SDS011;33088;51.982;5.872;2022-08-27T17:46:48;2.50;;;1.00;;
47349;SDS011;33088;51.982;5.872;2022-08-27T17:49:14;3.67;;;1.30;;
47349;SDS011;33088;51.982;5.872;2022-08-27T17:51:41;5.03;;;1.60;;
47349;SDS011;33088;51.982;5.872;2022-08-27T17:54:11;5.03;;;1.35;;
47349;SDS011;33088;51.982;5.872;2022-08-27T17:56:45;3.13;;;1.20;;
47349;SDS011;33088;51.982;5.872;2022-08-27T17:59:10;5.05;;;2.13;;
47349;SDS011;33088;51.982;5.872;2022-08-27T18:01:36;5.38;;;1.50;;
47349;SDS011;33088;51.982;5.872;2022-08-27T18:04:04;6.32;;;1.80;;
47349;SDS011;33088;51.982;5.872;2022-08-27T18:06:30;5.47;;;1.25;;
47349;SDS011;33088;51.982;5.872;2022-08-27T18:08:56;8.98;;;1.55;;
47349;SDS011;33088;51.982;5.872;2022-08-27T18:11:22;6.22;;;1.42;;
47349;SDS011;33088;51.982;5.872;2022-08-27T18:13:49;6.00;;;1.95;;
47349;SDS011;33088;51.982;5.872;2022-08-27T18:16:18;5.95;;;2.30;;
47349;SDS011;33088;51.982;5.872;2022-08-27T18:18:44;8.10;;;1.67;;
47349;SDS011;33088;51.982;5.872;2022-08-27T18:21:10;4.28;;;1.40;;
47349;SDS011;33088;51.982;5.872;2022-08-27T18:23:36;6.60;;;1.50;;
47349;SDS011;33088;51.982;5.872;2022-08-27T18:26:02;5.95;;;1.55;;
47349;SDS011;33088;51.982;5.872;2022-08-27T18:28:30;5.53;;;1.58;;
47349;SDS011;33088;51.982;5.872;2022-08-27T18:30:58;3.45;;;1.65;;
47349;SDS011;33088;51.982;5.872;2022-08-27T18:33:24;5.82;;;1.60;;
47349;SDS011;33088;51.982;5.872;2022-08-27T18:35:50;4.95;;;1.95;;
47349;SDS011;33088;51.982;5.872;2022-08-27T18:38:15;6.25;;;1.90;;
47349;SDS011;33088;51.982;5.872;2022-08-27T18:40:43;5.05;;;1.77;;
47349;SDS011;33088;51.982;5.872;2022-08-27T18:43:12;8.68;;;2.30;;
47349;SDS011;33088;51.982;5.872;2022-08-27T18:45:38;4.72;;;2.65;;
47349;SDS011;33088;51.982;5.872;2022-08-27T18:48:08;8.10;;;2.60;;
47349;SDS011;33088;51.982;5.872;2022-08-27T18:50:37;4.18;;;1.70;;
47349;SDS011;33088;51.982;5.872;2022-08-27T18:55:34;7.03;;;2.08;;
47349;SDS011;33088;51.982;5.872;2022-08-27T18:58:00;10.25;;;1.92;;
47349;SDS011;33088;51.982;5.872;2022-08-27T19:00:26;7.35;;;2.10;;
47349;SDS011;33088;51.982;5.872;2022-08-27T19:02:52;8.02;;;1.70;;
47349;SDS011;33088;51.982;5.872;2022-08-27T19:05:22;5.30;;;1.83;;
47349;SDS011;33088;51.982;5.872;2022-08-27T19:07:49;9.23;;;1.97;;
47349;SDS011;33088;51.982;5.872;2022-08-27T19:10:15;7.80;;;2.35;;
47349;SDS011;33088;51.982;5.872;2022-08-27T19:12:41;6.53;;;1.88;;
47349;SDS011;33088;51.982;5.872;2022-08-27T19:15:07;12.05;;;2.20;;
47349;SDS011;33088;51.982;5.872;2022-08-27T19:17:35;5.53;;;1.75;;
47349;SDS011;33088;51.982;5.872;2022-08-27T19:20:01;8.75;;;2.25;;
47349;SDS011;33088;51.982;5.872;2022-08-27T19:22:28;5.30;;;2.13;;
47349;SDS011;33088;51.982;5.872;2022-08-27T19:24:55;5.95;;;1.80;;
47349;SDS011;33088;51.982;5.872;2022-08-27T19:27:21;5.75;;;1.77;;
47349;SDS011;33088;51.982;5.872;2022-08-27T19:29:48;6.93;;;2.53;;
47349;SDS011;33088;51.982;5.872;2022-08-27T19:32:14;3.55;;;1.80;;
47349;SDS011;33088;51.982;5.872;2022-08-27T19:34:40;8.55;;;2.47;;
47349;SDS011;33088;51.982;5.872;2022-08-27T19:37:06;7.03;;;1.98;;
47349;SDS011;33088;51.982;5.872;2022-08-27T19:39:35;5.47;;;1.73;;
47349;SDS011;33088;51.982;5.872;2022-08-27T19:42:02;4.10;;;1.88;;
47349;SDS011;33088;51.982;5.872;2022-08-27T19:44:30;7.85;;;1.95;;
47349;SDS011;33088;51.982;5.872;2022-08-27T19:46:56;7.97;;;2.00;;
47349;SDS011;33088;51.982;5.872;2022-08-27T19:49:23;6.25;;;2.10;;
47349;SDS011;33088;51.982;5.872;2022-08-27T19:51:49;6.13;;;1.85;;
47349;SDS011;33088;51.982;5.872;2022-08-27T19:54:15;8.45;;;2.20;;
47349;SDS011;33088;51.982;5.872;2022-08-27T19:56:41;5.15;;;1.92;;
47349;SDS011;33088;51.982;5.872;2022-08-27T19:59:07;7.60;;;1.85;;
47349;SDS011;33088;51.982;5.872;2022-08-27T20:01:35;8.82;;;2.47;;
47349;SDS011;33088;51.982;5.872;2022-08-27T20:04:01;5.93;;;2.00;;
47349;SDS011;33088;51.982;5.872;2022-08-27T20:06:27;7.13;;;2.25;;
47349;SDS011;33088;51.982;5.872;2022-08-27T20:08:53;6.13;;;2.35;;
47349;SDS011;33088;51.982;5.872;2022-08-27T20:11:19;6.65;;;2.45;;
47349;SDS011;33088;51.982;5.872;2022-08-27T20:13:45;9.15;;;2.05;;
47349;SDS011;33088;51.982;5.872;2022-08-27T20:16:10;10.52;;;2.92;;
47349;SDS011;33088;51.982;5.872;2022-08-27T20:18:36;6.07;;;2.13;;
47349;SDS011;33088;51.982;5.872;2022-08-27T20:21:02;5.05;;;1.83;;
47349;SDS011;33088;51.982;5.872;2022-08-27T20:23:30;4.45;;;2.13;;
47349;SDS011;33088;51.982;5.872;2022-08-27T20:25:56;7.70;;;2.85;;
47349;SDS011;33088;51.982;5.872;2022-08-27T20:28:23;10.60;;;2.38;;
47349;SDS011;33088;51.982;5.872;2022-08-27T20:30:49;9.02;;;2.25;;
47349;SDS011;33088;51.982;5.872;2022-08-27T20:33:15;4.07;;;1.90;;
47349;SDS011;33088;51.982;5.872;2022-08-27T20:35:41;4.82;;;1.90;;
47349;SDS011;33088;51.982;5.872;2022-08-27T20:38:07;4.93;;;2.20;;
47349;SDS011;33088;51.982;5.872;2022-08-27T20:40:33;6.10;;;1.85;;
47349;SDS011;33088;51.982;5.872;2022-08-27T20:42:59;8.70;;;2.75;;
47349;SDS011;33088;51.982;5.872;2022-08-27T20:45:25;6.80;;;2.63;;
47349;SDS011;33088;51.982;5.872;2022-08-27T20:47:52;7.82;;;2.03;;
47349;SDS011;33088;51.982;5.872;2022-08-27T20:50:20;4.60;;;1.80;;
47349;SDS011;33088;51.982;5.872;2022-08-27T20:52:47;7.03;;;2.85;;
47349;SDS011;33088;51.982;5.872;2022-08-27T20:55:14;8.27;;;3.80;;
47349;SDS011;33088;51.982;5.872;2022-08-27T20:57:41;8.35;;;2.45;;
47349;SDS011;33088;51.982;5.872;2022-08-27T21:00:28;10.20;;;2.92;;
47349;SDS011;33088;51.982;5.872;2022-08-27T21:02:56;10.13;;;2.58;;
47349;SDS011;33088;51.982;5.872;2022-08-27T21:05:22;9.48;;;2.40;;
47349;SDS011;33088;51.982;5.872;2022-08-27T21:07:48;5.43;;;2.42;;
47349;SDS011;33088;51.982;5.872;2022-08-27T21:10:15;11.52;;;3.58;;
47349;SDS011;33088;51.982;5.872;2022-08-27T21:12:42;8.40;;;2.90;;
47349;SDS011;33088;51.982;5.872;2022-08-27T21:15:08;12.05;;;3.03;;
47349;SDS011;33088;51.982;5.872;2022-08-27T21:17:34;11.32;;;3.65;;
47349;SDS011;33088;51.982;5.872;2022-08-27T21:20:01;10.27;;;3.17;;
47349;SDS011;33088;51.982;5.872;2022-08-27T21:22:30;11.13;;;3.33;;
47349;SDS011;33088;51.982;5.872;2022-08-27T21:24:55;9.15;;;3.28;;
47349;SDS011;33088;51.982;5.872;2022-08-27T21:27:21;10.85;;;3.72;;
47349;SDS011;33088;51.982;5.872;2022-08-27T21:29:47;9.70;;;3.63;;
47349;SDS011;33088;51.982;5.872;2022-08-27T21:32:16;8.57;;;3.45;;
47349;SDS011;33088;51.982;5.872;2022-08-27T21:34:42;7.20;;;3.05;;
47349;SDS011;33088;51.982;5.872;2022-08-27T21:37:08;10.02;;;3.47;;
47349;SDS011;33088;51.982;5.872;2022-08-27T21:39:35;10.38;;;3.28;;
47349;SDS011;33088;51.982;5.872;2022-08-27T21:42:01;9.68;;;3.30;;
47349;SDS011;33088;51.982;5.872;2022-08-27T21:44:27;10.30;;;3.40;;
47349;SDS011;33088;51.982;5.872;2022-08-27T21:46:54;6.93;;;2.90;;
47349;SDS011;33088;51.982;5.872;2022-08-27T21:49:20;11.00;;;3.75;;
47349;SDS011;33088;51.982;5.872;2022-08-27T21:51:46;9.85;;;3.75;;
47349;SDS011;33088;51.982;5.872;2022-08-27T21:54:11;16.55;;;3.85;;
47349;SDS011;33088;51.982;5.872;2022-08-27T21:56:37;7.50;;;3.17;;
47349;SDS011;33088;51.982;5.872;2022-08-27T21:59:03;10.30;;;3.90;;
47349;SDS011;33088;51.982;5.872;2022-08-27T22:01:30;13.68;;;3.65;;
47349;SDS011;33088;51.982;5.872;2022-08-27T22:03:55;9.15;;;3.40;;
47349;SDS011;33088;51.982;5.872;2022-08-27T22:06:21;11.23;;;3.83;;
47349;SDS011;33088;51.982;5.872;2022-08-27T22:08:47;10.27;;;3.58;;
47349;SDS011;33088;51.982;5.872;2022-08-27T22:11:13;11.40;;;4.55;;
47349;SDS011;33088;51.982;5.872;2022-08-27T22:13:39;16.95;;;4.82;;
47349;SDS011;33088;51.982;5.872;2022-08-27T22:16:05;12.43;;;4.05;;
47349;SDS011;33088;51.982;5.872;2022-08-27T22:18:31;9.52;;;3.25;;
47349;SDS011;33088;51.982;5.872;2022-08-27T22:20:56;14.00;;;3.95;;
47349;SDS011;33088;51.982;5.872;2022-08-27T22:23:22;15.07;;;4.50;;
47349;SDS011;33088;51.982;5.872;2022-08-27T22:25:48;10.52;;;3.90;;
47349;SDS011;33088;51.982;5.872;2022-08-27T22:28:14;10.10;;;3.97;;
47349;SDS011;33088;51.982;5.872;2022-08-27T22:30:41;7.65;;;3.53;;
47349;SDS011;33088;51.982;5.872;2022-08-27T22:33:07;11.45;;;3.55;;
47349;SDS011;33088;51.982;5.872;2022-08-27T22:35:33;13.10;;;3.83;;
47349;SDS011;33088;51.982;5.872;2022-08-27T22:37:59;9.05;;;3.60;;
47349;SDS011;33088;51.982;5.872;2022-08-27T22:40:25;7.13;;;3.53;;
47349;SDS011;33088;51.982;5.872;2022-08-27T22:42:53;12.60;;;4.53;;
47349;SDS011;33088;51.982;5.872;2022-08-27T22:45:19;9.85;;;3.88;;
47349;SDS011;33088;51.982;5.872;2022-08-27T22:47:45;11.05;;;3.85;;
47349;SDS011;33088;51.982;5.872;2022-08-27T22:50:11;9.73;;;3.92;;
47349;SDS011;33088;51.982;5.872;2022-08-27T22:52:37;13.07;;;4.60;;
47349;SDS011;33088;51.982;5.872;2022-08-27T22:55:06;11.27;;;4.30;;
47349;SDS011;33088;51.982;5.872;2022-08-27T22:57:32;9.50;;;3.85;;
47349;SDS011;33088;51.982;5.872;2022-08-27T22:59:59;10.43;;;3.75;;
47349;SDS011;33088;51.982;5.872;2022-08-27T23:02:25;9.93;;;4.40;;
47349;SDS011;33088;51.982;5.872;2022-08-27T23:04:51;10.18;;;4.13;;
47349;SDS011;33088;51.982;5.872;2022-08-27T23:07:17;11.80;;;4.47;;
47349;SDS011;33088;51.982;5.872;2022-08-27T23:09:43;13.20;;;4.68;;
47349;SDS011;33088;51.982;5.872;2022-08-27T23:12:09;8.23;;;3.92;;
47349;SDS011;33088;51.982;5.872;2022-08-27T23:14:34;10.85;;;4.25;;
47349;SDS011;33088;51.982;5.872;2022-08-27T23:17:00;14.13;;;4.10;;
47349;SDS011;33088;51.982;5.872;2022-08-27T23:19:26;9.70;;;4.10;;
47349;SDS011;33088;51.982;5.872;2022-08-27T23:21:54;9.00;;;4.10;;
47349;SDS011;33088;51.982;5.872;2022-08-27T23:24:21;11.27;;;4.28;;
47349;SDS011;33088;51.982;5.872;2022-08-27T23:26:47;11.48;;;4.45;;
47349;SDS011;33088;51.982;5.872;2022-08-27T23:29:31;10.77;;;4.00;;
47349;SDS011;33088;51.982;5.872;2022-08-27T23:31:57;16.92;;;4.53;;
47349;SDS011;33088;51.982;5.872;2022-08-27T23:34:24;10.23;;;4.72;;
47349;SDS011;33088;51.982;5.872;2022-08-27T23:36:50;9.93;;;4.13;;
47349;SDS011;33088;51.982;5.872;2022-08-27T23:39:16;8.85;;;4.05;;
47349;SDS011;33088;51.982;5.872;2022-08-27T23:41:42;16.70;;;4.30;;
47349;SDS011;33088;51.982;5.872;2022-08-27T23:44:09;15.02;;;5.35;;
47349;SDS011;33088;51.982;5.872;2022-08-27T23:46:36;10.75;;;4.18;;
47349;SDS011;33088;51.982;5.872;2022-08-27T23:49:02;9.07;;;4.38;;
47349;SDS011;33088;51.982;5.872;2022-08-27T23:51:28;11.05;;;3.95;;
47349;SDS011;33088;51.982;5.872;2022-08-27T23:53:54;13.43;;;4.15;;
47349;SDS011;33088;51.982;5.872;2022-08-27T23:56:21;14.02;;;4.55;;
47349;SDS011;33088;51.982;5.872;2022-08-27T23:58:47;9.68;;;4.40;;
